sensor_id;sensor_type;location;lat;lon;timestamp;P1;durP1;ratioP1;P2;durP2;ratioP2
14516;SDS011;7344;50.864;4.362;2023-06-22T00:00:52;7.00;;;6.25;;
14516;SDS011;7344;50.864;4.362;2023-06-22T00:03:18;8.43;;;6.70;;
14516;SDS011;7344;50.864;4.362;2023-06-22T00:05:45;8.57;;;6.45;;
14516;SDS011;7344;50.864;4.362;2023-06-22T00:08:12;7.90;;;6.65;;
14516;SDS011;7344;50.864;4.362;2023-06-22T00:10:38;8.20;;;7.13;;
14516;SDS011;7344;50.864;4.362;2023-06-22T00:13:04;9.52;;;6.80;;
14516;SDS011;7344;50.864;4.362;2023-06-22T00:15:30;10.93;;;7.25;;
14516;SDS011;7344;50.864;4.362;2023-06-22T00:17:56;7.68;;;6.75;;
14516;SDS011;7344;50.864;4.362;2023-06-22T00:20:22;7.32;;;6.05;;
14516;SDS011;7344;50.864;4.362;2023-06-22T00:22:52;7.35;;;6.07;;
14516;SDS011;7344;50.864;4.362;2023-06-22T00:25:22;7.28;;;6.40;;
14516;SDS011;7344;50.864;4.362;2023-06-22T00:27:48;8.90;;;7.10;;
14516;SDS011;7344;50.864;4.362;2023-06-22T00:30:17;8.85;;;6.20;;
14516;SDS011;7344;50.864;4.362;2023-06-22T00:32:44;8.88;;;6.60;;
14516;SDS011;7344;50.864;4.362;2023-06-22T00:35:11;7.75;;;6.10;;
14516;SDS011;7344;50.864;4.362;2023-06-22T00:37:38;10.18;;;6.20;;
14516;SDS011;7344;50.864;4.362;2023-06-22T00:40:07;6.72;;;6.03;;
14516;SDS011;7344;50.864;4.362;2023-06-22T00:42:34;6.20;;;5.65;;
14516;SDS011;7344;50.864;4.362;2023-06-22T00:44:59;7.90;;;6.00;;
14516;SDS011;7344;50.864;4.362;2023-06-22T00:47:25;10.07;;;6.28;;
14516;SDS011;7344;50.864;4.362;2023-06-22T00:49:51;7.85;;;5.88;;
14516;SDS011;7344;50.864;4.362;2023-06-22T00:52:18;6.72;;;6.10;;
14516;SDS011;7344;50.864;4.362;2023-06-22T00:54:49;6.85;;;5.90;;
14516;SDS011;7344;50.864;4.362;2023-06-22T00:57:16;6.60;;;5.90;;
14516;SDS011;7344;50.864;4.362;2023-06-22T00:59:43;9.35;;;6.30;;
14516;SDS011;7344;50.864;4.362;2023-06-22T01:02:09;9.48;;;6.22;;
14516;SDS011;7344;50.864;4.362;2023-06-22T01:04:36;10.23;;;6.10;;
14516;SDS011;7344;50.864;4.362;2023-06-22T01:09:41;9.48;;;5.95;;
14516;SDS011;7344;50.864;4.362;2023-06-22T01:12:34;8.10;;;6.03;;
14516;SDS011;7344;50.864;4.362;2023-06-22T01:15:10;9.05;;;6.45;;
14516;SDS011;7344;50.864;4.362;2023-06-22T01:17:40;7.55;;;6.18;;
14516;SDS011;7344;50.864;4.362;2023-06-22T01:20:08;7.72;;;6.35;;
14516;SDS011;7344;50.864;4.362;2023-06-22T01:22:42;8.43;;;6.47;;
14516;SDS011;7344;50.864;4.362;2023-06-22T01:30:58;6.78;;;5.82;;
14516;SDS011;7344;50.864;4.362;2023-06-22T01:33:34;5.82;;;5.32;;
14516;SDS011;7344;50.864;4.362;2023-06-22T01:36:02;6.13;;;5.53;;
14516;SDS011;7344;50.864;4.362;2023-06-22T01:38:29;6.00;;;5.50;;
14516;SDS011;7344;50.864;4.362;2023-06-22T01:40:57;7.97;;;5.38;;
14516;SDS011;7344;50.864;4.362;2023-06-22T01:43:23;8.68;;;5.60;;
14516;SDS011;7344;50.864;4.362;2023-06-22T01:45:51;8.45;;;5.13;;
14516;SDS011;7344;50.864;4.362;2023-06-22T01:48:18;5.78;;;5.20;;
14516;SDS011;7344;50.864;4.362;2023-06-22T01:50:45;5.95;;;5.35;;
14516;SDS011;7344;50.864;4.362;2023-06-22T01:53:11;8.02;;;5.50;;
14516;SDS011;7344;50.864;4.362;2023-06-22T01:55:36;5.88;;;5.22;;
14516;SDS011;7344;50.864;4.362;2023-06-22T01:58:02;6.20;;;5.60;;
14516;SDS011;7344;50.864;4.362;2023-06-22T02:00:28;9.73;;;5.43;;
14516;SDS011;7344;50.864;4.362;2023-06-22T02:05:34;6.53;;;4.88;;
14516;SDS011;7344;50.864;4.362;2023-06-22T02:08:11;7.80;;;5.10;;
14516;SDS011;7344;50.864;4.362;2023-06-22T02:10:43;9.75;;;5.40;;
14516;SDS011;7344;50.864;4.362;2023-06-22T02:13:10;5.68;;;4.88;;
14516;SDS011;7344;50.864;4.362;2023-06-22T02:15:37;6.63;;;5.30;;
14516;SDS011;7344;50.864;4.362;2023-06-22T02:18:03;6.18;;;5.07;;
14516;SDS011;7344;50.864;4.362;2023-06-22T02:20:30;8.15;;;4.95;;
14516;SDS011;7344;50.864;4.362;2023-06-22T02:22:55;5.70;;;5.18;;
14516;SDS011;7344;50.864;4.362;2023-06-22T02:25:21;7.13;;;5.32;;
14516;SDS011;7344;50.864;4.362;2023-06-22T02:27:47;6.53;;;5.07;;
14516;SDS011;7344;50.864;4.362;2023-06-22T02:30:13;6.20;;;5.60;;
14516;SDS011;7344;50.864;4.362;2023-06-22T02:32:40;6.50;;;5.68;;
14516;SDS011;7344;50.864;4.362;2023-06-22T02:35:07;6.97;;;5.85;;
14516;SDS011;7344;50.864;4.362;2023-06-22T02:37:37;5.82;;;5.32;;
14516;SDS011;7344;50.864;4.362;2023-06-22T02:40:06;8.95;;;5.82;;
14516;SDS011;7344;50.864;4.362;2023-06-22T02:42:35;8.77;;;6.38;;
14516;SDS011;7344;50.864;4.362;2023-06-22T02:45:01;11.13;;;5.55;;
14516;SDS011;7344;50.864;4.362;2023-06-22T02:47:27;7.00;;;5.82;;
14516;SDS011;7344;50.864;4.362;2023-06-22T02:49:53;9.63;;;5.68;;
14516;SDS011;7344;50.864;4.362;2023-06-22T02:52:18;6.55;;;5.95;;
14516;SDS011;7344;50.864;4.362;2023-06-22T02:54:44;6.80;;;6.10;;
14516;SDS011;7344;50.864;4.362;2023-06-22T02:57:11;7.32;;;6.40;;
14516;SDS011;7344;50.864;4.362;2023-06-22T02:59:39;7.47;;;6.50;;
14516;SDS011;7344;50.864;4.362;2023-06-22T03:02:06;8.13;;;6.43;;
14516;SDS011;7344;50.864;4.362;2023-06-22T03:04:33;9.10;;;6.85;;
14516;SDS011;7344;50.864;4.362;2023-06-22T03:06:59;9.35;;;7.00;;
14516;SDS011;7344;50.864;4.362;2023-06-22T03:09:26;7.65;;;6.85;;
14516;SDS011;7344;50.864;4.362;2023-06-22T03:11:53;11.65;;;6.50;;
14516;SDS011;7344;50.864;4.362;2023-06-22T03:14:21;7.30;;;6.05;;
14516;SDS011;7344;50.864;4.362;2023-06-22T03:16:47;10.95;;;7.05;;
14516;SDS011;7344;50.864;4.362;2023-06-22T03:19:13;9.32;;;6.72;;
14516;SDS011;7344;50.864;4.362;2023-06-22T03:21:39;7.70;;;6.65;;
14516;SDS011;7344;50.864;4.362;2023-06-22T03:24:06;11.73;;;7.78;;
14516;SDS011;7344;50.864;4.362;2023-06-22T03:26:32;12.30;;;7.95;;
14516;SDS011;7344;50.864;4.362;2023-06-22T03:28:59;7.72;;;6.95;;
14516;SDS011;7344;50.864;4.362;2023-06-22T03:31:25;8.48;;;7.00;;
14516;SDS011;7344;50.864;4.362;2023-06-22T03:33:51;11.25;;;7.05;;
14516;SDS011;7344;50.864;4.362;2023-06-22T03:36:17;8.07;;;6.50;;
14516;SDS011;7344;50.864;4.362;2023-06-22T03:38:44;9.02;;;6.78;;
14516;SDS011;7344;50.864;4.362;2023-06-22T03:41:10;8.95;;;7.00;;
14516;SDS011;7344;50.864;4.362;2023-06-22T03:43:36;8.30;;;6.65;;
14516;SDS011;7344;50.864;4.362;2023-06-22T03:46:02;8.40;;;6.70;;
14516;SDS011;7344;50.864;4.362;2023-06-22T03:48:27;9.52;;;7.65;;
14516;SDS011;7344;50.864;4.362;2023-06-22T03:50:53;9.52;;;7.15;;
14516;SDS011;7344;50.864;4.362;2023-06-22T03:53:18;8.90;;;6.97;;
14516;SDS011;7344;50.864;4.362;2023-06-22T03:55:50;9.18;;;7.10;;
14516;SDS011;7344;50.864;4.362;2023-06-22T03:58:18;9.35;;;7.50;;
14516;SDS011;7344;50.864;4.362;2023-06-22T04:00:48;8.88;;;7.40;;
14516;SDS011;7344;50.864;4.362;2023-06-22T04:03:15;14.50;;;7.75;;
14516;SDS011;7344;50.864;4.362;2023-06-22T04:05:41;10.88;;;7.85;;
14516;SDS011;7344;50.864;4.362;2023-06-22T04:08:07;10.93;;;7.97;;
14516;SDS011;7344;50.864;4.362;2023-06-22T04:10:33;13.80;;;8.18;;
14516;SDS011;7344;50.864;4.362;2023-06-22T04:12:59;11.45;;;8.73;;
14516;SDS011;7344;50.864;4.362;2023-06-22T04:15:25;14.40;;;9.02;;
14516;SDS011;7344;50.864;4.362;2023-06-22T04:17:51;14.65;;;9.57;;
14516;SDS011;7344;50.864;4.362;2023-06-22T04:20:16;17.45;;;9.23;;
14516;SDS011;7344;50.864;4.362;2023-06-22T04:22:42;19.77;;;10.13;;
14516;SDS011;7344;50.864;4.362;2023-06-22T04:25:07;16.10;;;9.77;;
14516;SDS011;7344;50.864;4.362;2023-06-22T04:27:33;12.30;;;9.85;;
14516;SDS011;7344;50.864;4.362;2023-06-22T04:30:07;17.10;;;11.30;;
14516;SDS011;7344;50.864;4.362;2023-06-22T04:32:33;14.48;;;11.40;;
14516;SDS011;7344;50.864;4.362;2023-06-22T04:35:02;14.93;;;10.32;;
14516;SDS011;7344;50.864;4.362;2023-06-22T04:37:29;14.57;;;10.75;;
14516;SDS011;7344;50.864;4.362;2023-06-22T04:39:55;12.43;;;10.63;;
14516;SDS011;7344;50.864;4.362;2023-06-22T04:42:21;15.15;;;10.45;;
14516;SDS011;7344;50.864;4.362;2023-06-22T04:44:46;11.98;;;10.43;;
14516;SDS011;7344;50.864;4.362;2023-06-22T04:47:12;12.65;;;11.35;;
14516;SDS011;7344;50.864;4.362;2023-06-22T04:49:38;14.38;;;11.82;;
14516;SDS011;7344;50.864;4.362;2023-06-22T04:52:06;13.70;;;11.35;;
14516;SDS011;7344;50.864;4.362;2023-06-22T04:54:32;15.02;;;10.82;;
14516;SDS011;7344;50.864;4.362;2023-06-22T04:57:03;12.80;;;11.32;;
14516;SDS011;7344;50.864;4.362;2023-06-22T04:59:30;12.85;;;10.75;;
14516;SDS011;7344;50.864;4.362;2023-06-22T05:01:56;13.13;;;11.30;;
14516;SDS011;7344;50.864;4.362;2023-06-22T05:04:23;11.63;;;10.43;;
14516;SDS011;7344;50.864;4.362;2023-06-22T05:06:52;15.63;;;11.57;;
14516;SDS011;7344;50.864;4.362;2023-06-22T05:09:19;14.68;;;11.98;;
14516;SDS011;7344;50.864;4.362;2023-06-22T05:11:45;14.48;;;11.18;;
14516;SDS011;7344;50.864;4.362;2023-06-22T05:14:11;15.38;;;11.80;;
14516;SDS011;7344;50.864;4.362;2023-06-22T05:16:37;15.23;;;11.50;;
14516;SDS011;7344;50.864;4.362;2023-06-22T05:19:04;13.27;;;11.70;;
14516;SDS011;7344;50.864;4.362;2023-06-22T05:21:30;15.65;;;12.10;;
14516;SDS011;7344;50.864;4.362;2023-06-22T05:23:56;17.85;;;12.55;;
14516;SDS011;7344;50.864;4.362;2023-06-22T05:26:27;13.40;;;11.85;;
14516;SDS011;7344;50.864;4.362;2023-06-22T05:28:57;14.85;;;12.63;;
14516;SDS011;7344;50.864;4.362;2023-06-22T05:31:25;14.90;;;12.48;;
14516;SDS011;7344;50.864;4.362;2023-06-22T05:33:51;14.52;;;13.05;;
14516;SDS011;7344;50.864;4.362;2023-06-22T05:36:19;19.60;;;13.38;;
14516;SDS011;7344;50.864;4.362;2023-06-22T05:38:45;12.85;;;11.50;;
14516;SDS011;7344;50.864;4.362;2023-06-22T05:41:11;15.13;;;12.50;;
14516;SDS011;7344;50.864;4.362;2023-06-22T05:43:36;17.58;;;12.90;;
14516;SDS011;7344;50.864;4.362;2023-06-22T05:46:03;15.05;;;12.25;;
14516;SDS011;7344;50.864;4.362;2023-06-22T05:48:29;17.77;;;12.60;;
14516;SDS011;7344;50.864;4.362;2023-06-22T05:50:55;18.98;;;12.30;;
14516;SDS011;7344;50.864;4.362;2023-06-22T05:53:20;20.98;;;13.05;;
14516;SDS011;7344;50.864;4.362;2023-06-22T05:55:46;18.17;;;13.23;;
14516;SDS011;7344;50.864;4.362;2023-06-22T05:58:11;18.52;;;14.18;;
14516;SDS011;7344;50.864;4.362;2023-06-22T06:00:38;17.98;;;14.27;;
14516;SDS011;7344;50.864;4.362;2023-06-22T06:03:04;15.32;;;13.70;;
14516;SDS011;7344;50.864;4.362;2023-06-22T06:05:31;18.23;;;14.77;;
14516;SDS011;7344;50.864;4.362;2023-06-22T06:08:00;21.10;;;15.77;;
14516;SDS011;7344;50.864;4.362;2023-06-22T06:10:26;23.30;;;15.68;;
14516;SDS011;7344;50.864;4.362;2023-06-22T06:12:54;21.35;;;15.30;;
14516;SDS011;7344;50.864;4.362;2023-06-22T06:15:20;24.30;;;16.50;;
14516;SDS011;7344;50.864;4.362;2023-06-22T06:17:49;22.48;;;16.40;;
14516;SDS011;7344;50.864;4.362;2023-06-22T06:20:20;22.90;;;16.88;;
14516;SDS011;7344;50.864;4.362;2023-06-22T06:22:49;21.23;;;16.80;;
14516;SDS011;7344;50.864;4.362;2023-06-22T06:25:16;24.00;;;17.42;;
14516;SDS011;7344;50.864;4.362;2023-06-22T06:27:51;22.52;;;15.82;;
14516;SDS011;7344;50.864;4.362;2023-06-22T06:30:18;22.15;;;15.65;;
14516;SDS011;7344;50.864;4.362;2023-06-22T06:32:44;19.23;;;15.23;;
14516;SDS011;7344;50.864;4.362;2023-06-22T06:35:11;25.00;;;17.15;;
14516;SDS011;7344;50.864;4.362;2023-06-22T06:37:39;23.13;;;16.38;;
14516;SDS011;7344;50.864;4.362;2023-06-22T06:40:09;22.23;;;16.40;;
14516;SDS011;7344;50.864;4.362;2023-06-22T06:42:37;21.88;;;16.23;;
14516;SDS011;7344;50.864;4.362;2023-06-22T06:45:05;21.38;;;16.33;;
14516;SDS011;7344;50.864;4.362;2023-06-22T06:47:31;26.05;;;17.08;;
14516;SDS011;7344;50.864;4.362;2023-06-22T06:49:57;23.45;;;16.63;;
14516;SDS011;7344;50.864;4.362;2023-06-22T06:52:23;25.25;;;16.13;;
14516;SDS011;7344;50.864;4.362;2023-06-22T06:54:48;22.55;;;16.48;;
14516;SDS011;7344;50.864;4.362;2023-06-22T06:57:16;25.52;;;15.73;;
14516;SDS011;7344;50.864;4.362;2023-06-22T06:59:42;18.77;;;16.48;;
14516;SDS011;7344;50.864;4.362;2023-06-22T07:02:08;20.75;;;16.70;;
14516;SDS011;7344;50.864;4.362;2023-06-22T07:04:33;22.02;;;16.33;;
14516;SDS011;7344;50.864;4.362;2023-06-22T07:07:00;22.63;;;15.93;;
14516;SDS011;7344;50.864;4.362;2023-06-22T07:09:27;19.67;;;15.95;;
14516;SDS011;7344;50.864;4.362;2023-06-22T07:11:52;21.60;;;17.40;;
14516;SDS011;7344;50.864;4.362;2023-06-22T07:14:18;25.42;;;17.58;;
14516;SDS011;7344;50.864;4.362;2023-06-22T07:16:44;24.48;;;17.40;;
14516;SDS011;7344;50.864;4.362;2023-06-22T07:19:11;19.80;;;17.38;;
14516;SDS011;7344;50.864;4.362;2023-06-22T07:21:37;19.00;;;16.80;;
14516;SDS011;7344;50.864;4.362;2023-06-22T07:24:04;23.75;;;17.75;;
14516;SDS011;7344;50.864;4.362;2023-06-22T07:26:33;21.98;;;17.27;;
14516;SDS011;7344;50.864;4.362;2023-06-22T07:28:59;25.02;;;17.13;;
14516;SDS011;7344;50.864;4.362;2023-06-22T07:31:25;19.40;;;16.45;;
14516;SDS011;7344;50.864;4.362;2023-06-22T07:33:51;20.98;;;17.05;;
14516;SDS011;7344;50.864;4.362;2023-06-22T07:36:17;18.00;;;16.20;;
14516;SDS011;7344;50.864;4.362;2023-06-22T07:38:43;19.52;;;16.50;;
14516;SDS011;7344;50.864;4.362;2023-06-22T07:41:09;19.60;;;16.45;;
14516;SDS011;7344;50.864;4.362;2023-06-22T07:43:35;19.08;;;17.08;;
14516;SDS011;7344;50.864;4.362;2023-06-22T07:46:02;21.85;;;16.27;;
14516;SDS011;7344;50.864;4.362;2023-06-22T07:48:28;22.50;;;16.90;;
14516;SDS011;7344;50.864;4.362;2023-06-22T07:50:54;19.40;;;16.10;;
14516;SDS011;7344;50.864;4.362;2023-06-22T07:53:20;19.27;;;15.63;;
14516;SDS011;7344;50.864;4.362;2023-06-22T07:55:47;18.35;;;16.38;;
14516;SDS011;7344;50.864;4.362;2023-06-22T07:58:12;20.63;;;15.70;;
14516;SDS011;7344;50.864;4.362;2023-06-22T08:00:38;18.50;;;15.80;;
14516;SDS011;7344;50.864;4.362;2023-06-22T08:03:04;18.35;;;15.82;;
14516;SDS011;7344;50.864;4.362;2023-06-22T08:05:30;19.70;;;16.08;;
14516;SDS011;7344;50.864;4.362;2023-06-22T08:07:56;16.70;;;14.82;;
14516;SDS011;7344;50.864;4.362;2023-06-22T08:10:22;19.83;;;15.68;;
14516;SDS011;7344;50.864;4.362;2023-06-22T08:12:48;20.40;;;15.73;;
14516;SDS011;7344;50.864;4.362;2023-06-22T08:15:14;19.42;;;16.05;;
14516;SDS011;7344;50.864;4.362;2023-06-22T08:17:39;18.00;;;16.27;;
14516;SDS011;7344;50.864;4.362;2023-06-22T08:20:06;24.02;;;16.98;;
14516;SDS011;7344;50.864;4.362;2023-06-22T08:22:36;18.83;;;16.35;;
14516;SDS011;7344;50.864;4.362;2023-06-22T08:25:02;21.15;;;16.90;;
14516;SDS011;7344;50.864;4.362;2023-06-22T08:27:29;19.27;;;17.30;;
14516;SDS011;7344;50.864;4.362;2023-06-22T08:29:57;22.10;;;17.17;;
14516;SDS011;7344;50.864;4.362;2023-06-22T08:32:24;22.92;;;17.23;;
14516;SDS011;7344;50.864;4.362;2023-06-22T08:34:51;24.77;;;18.63;;
14516;SDS011;7344;50.864;4.362;2023-06-22T08:37:21;20.67;;;18.00;;
14516;SDS011;7344;50.864;4.362;2023-06-22T08:39:48;20.65;;;17.35;;
14516;SDS011;7344;50.864;4.362;2023-06-22T08:42:14;19.27;;;17.13;;
14516;SDS011;7344;50.864;4.362;2023-06-22T08:44:40;19.42;;;17.25;;
14516;SDS011;7344;50.864;4.362;2023-06-22T08:47:06;33.08;;;18.83;;
14516;SDS011;7344;50.864;4.362;2023-06-22T08:49:31;22.27;;;18.00;;
14516;SDS011;7344;50.864;4.362;2023-06-22T08:51:57;19.90;;;16.17;;
14516;SDS011;7344;50.864;4.362;2023-06-22T08:54:22;19.55;;;17.02;;
14516;SDS011;7344;50.864;4.362;2023-06-22T08:56:48;17.98;;;16.17;;
14516;SDS011;7344;50.864;4.362;2023-06-22T08:59:14;20.70;;;16.65;;
14516;SDS011;7344;50.864;4.362;2023-06-22T09:01:39;18.75;;;16.88;;
14516;SDS011;7344;50.864;4.362;2023-06-22T09:04:05;22.40;;;17.05;;
14516;SDS011;7344;50.864;4.362;2023-06-22T09:06:32;19.08;;;16.20;;
14516;SDS011;7344;50.864;4.362;2023-06-22T09:08:58;18.40;;;16.65;;
14516;SDS011;7344;50.864;4.362;2023-06-22T09:11:26;20.30;;;16.70;;
14516;SDS011;7344;50.864;4.362;2023-06-22T09:13:52;20.90;;;17.48;;
14516;SDS011;7344;50.864;4.362;2023-06-22T09:16:18;21.55;;;17.35;;
14516;SDS011;7344;50.864;4.362;2023-06-22T09:18:47;18.98;;;16.27;;
14516;SDS011;7344;50.864;4.362;2023-06-22T09:21:13;18.85;;;16.55;;
14516;SDS011;7344;50.864;4.362;2023-06-22T09:23:39;17.73;;;15.05;;
14516;SDS011;7344;50.864;4.362;2023-06-22T09:26:05;16.92;;;15.13;;
14516;SDS011;7344;50.864;4.362;2023-06-22T09:28:30;17.67;;;15.43;;
14516;SDS011;7344;50.864;4.362;2023-06-22T09:30:56;19.00;;;15.25;;
14516;SDS011;7344;50.864;4.362;2023-06-22T09:33:23;19.33;;;15.55;;
14516;SDS011;7344;50.864;4.362;2023-06-22T09:35:49;18.02;;;16.02;;
14516;SDS011;7344;50.864;4.362;2023-06-22T09:38:16;17.67;;;15.98;;
14516;SDS011;7344;50.864;4.362;2023-06-22T09:40:41;19.08;;;15.30;;
14516;SDS011;7344;50.864;4.362;2023-06-22T09:43:07;17.70;;;15.43;;
14516;SDS011;7344;50.864;4.362;2023-06-22T09:45:33;21.85;;;17.52;;
14516;SDS011;7344;50.864;4.362;2023-06-22T09:47:59;21.95;;;17.17;;
14516;SDS011;7344;50.864;4.362;2023-06-22T09:50:24;20.13;;;17.05;;
14516;SDS011;7344;50.864;4.362;2023-06-22T09:52:50;23.27;;;19.60;;
14516;SDS011;7344;50.864;4.362;2023-06-22T09:55:19;15.30;;;13.27;;
14516;SDS011;7344;50.864;4.362;2023-06-22T09:57:45;19.05;;;16.30;;
14516;SDS011;7344;50.864;4.362;2023-06-22T10:00:11;21.05;;;18.85;;
14516;SDS011;7344;50.864;4.362;2023-06-22T10:02:38;25.20;;;21.98;;
14516;SDS011;7344;50.864;4.362;2023-06-22T10:05:04;26.60;;;23.73;;
14516;SDS011;7344;50.864;4.362;2023-06-22T10:07:30;25.88;;;23.17;;
14516;SDS011;7344;50.864;4.362;2023-06-22T10:09:56;28.70;;;24.08;;
14516;SDS011;7344;50.864;4.362;2023-06-22T10:12:21;26.30;;;21.97;;
14516;SDS011;7344;50.864;4.362;2023-06-22T10:14:47;32.37;;;24.97;;
14516;SDS011;7344;50.864;4.362;2023-06-22T10:17:15;23.87;;;19.07;;
14516;SDS011;7344;50.864;4.362;2023-06-22T10:19:41;24.13;;;20.80;;
14516;SDS011;7344;50.864;4.362;2023-06-22T10:22:07;27.83;;;22.43;;
14516;SDS011;7344;50.864;4.362;2023-06-22T10:24:32;28.33;;;24.60;;
14516;SDS011;7344;50.864;4.362;2023-06-22T10:26:58;29.27;;;24.80;;
14516;SDS011;7344;50.864;4.362;2023-06-22T10:29:24;28.93;;;24.77;;
14516;SDS011;7344;50.864;4.362;2023-06-22T10:31:49;26.90;;;24.10;;
14516;SDS011;7344;50.864;4.362;2023-06-22T10:34:22;27.60;;;24.37;;
14516;SDS011;7344;50.864;4.362;2023-06-22T10:36:51;28.67;;;24.87;;
14516;SDS011;7344;50.864;4.362;2023-06-22T10:39:17;27.47;;;24.57;;
14516;SDS011;7344;50.864;4.362;2023-06-22T10:41:42;27.93;;;24.90;;
14516;SDS011;7344;50.864;4.362;2023-06-22T10:44:09;29.97;;;25.63;;
14516;SDS011;7344;50.864;4.362;2023-06-22T10:46:35;28.57;;;25.47;;
14516;SDS011;7344;50.864;4.362;2023-06-22T10:49:01;29.02;;;26.00;;
14516;SDS011;7344;50.864;4.362;2023-06-22T10:51:27;31.37;;;26.77;;
14516;SDS011;7344;50.864;4.362;2023-06-22T10:53:53;28.63;;;25.58;;
14516;SDS011;7344;50.864;4.362;2023-06-22T10:56:19;31.83;;;28.40;;
14516;SDS011;7344;50.864;4.362;2023-06-22T10:58:45;31.58;;;28.10;;
14516;SDS011;7344;50.864;4.362;2023-06-22T11:01:10;34.40;;;28.55;;
14516;SDS011;7344;50.864;4.362;2023-06-22T11:03:36;35.20;;;30.35;;
14516;SDS011;7344;50.864;4.362;2023-06-22T11:06:02;34.80;;;30.90;;
14516;SDS011;7344;50.864;4.362;2023-06-22T11:08:28;32.78;;;29.38;;
14516;SDS011;7344;50.864;4.362;2023-06-22T11:10:53;33.70;;;29.83;;
14516;SDS011;7344;50.864;4.362;2023-06-22T11:13:19;36.55;;;30.60;;
14516;SDS011;7344;50.864;4.362;2023-06-22T11:15:44;34.08;;;30.38;;
14516;SDS011;7344;50.864;4.362;2023-06-22T11:18:10;34.95;;;31.15;;
14516;SDS011;7344;50.864;4.362;2023-06-22T11:20:36;38.33;;;33.42;;
14516;SDS011;7344;50.864;4.362;2023-06-22T11:23:04;32.90;;;29.42;;
14516;SDS011;7344;50.864;4.362;2023-06-22T11:25:31;34.35;;;30.13;;
14516;SDS011;7344;50.864;4.362;2023-06-22T11:27:57;33.33;;;29.37;;
14516;SDS011;7344;50.864;4.362;2023-06-22T11:30:22;28.63;;;25.30;;
14516;SDS011;7344;50.864;4.362;2023-06-22T11:32:48;27.90;;;24.98;;
14516;SDS011;7344;50.864;4.362;2023-06-22T11:35:14;28.38;;;25.50;;
14516;SDS011;7344;50.864;4.362;2023-06-22T11:37:39;28.80;;;24.80;;
14516;SDS011;7344;50.864;4.362;2023-06-22T11:40:05;26.03;;;23.33;;
14516;SDS011;7344;50.864;4.362;2023-06-22T11:42:34;26.67;;;23.83;;
14516;SDS011;7344;50.864;4.362;2023-06-22T11:45:00;26.40;;;23.63;;
14516;SDS011;7344;50.864;4.362;2023-06-22T11:47:25;24.90;;;20.98;;
14516;SDS011;7344;50.864;4.362;2023-06-22T11:49:51;23.67;;;21.40;;
14516;SDS011;7344;50.864;4.362;2023-06-22T11:52:16;24.07;;;21.57;;
14516;SDS011;7344;50.864;4.362;2023-06-22T11:54:45;26.42;;;23.60;;
14516;SDS011;7344;50.864;4.362;2023-06-22T11:57:10;26.77;;;23.33;;
14516;SDS011;7344;50.864;4.362;2023-06-22T11:59:36;26.23;;;23.43;;
14516;SDS011;7344;50.864;4.362;2023-06-22T12:02:02;25.73;;;22.93;;
14516;SDS011;7344;50.864;4.362;2023-06-22T12:04:28;27.10;;;24.27;;
14516;SDS011;7344;50.864;4.362;2023-06-22T12:06:54;28.80;;;25.80;;
14516;SDS011;7344;50.864;4.362;2023-06-22T12:09:19;27.43;;;24.53;;
14516;SDS011;7344;50.864;4.362;2023-06-22T12:11:45;26.73;;;24.00;;
14516;SDS011;7344;50.864;4.362;2023-06-22T12:14:11;27.40;;;24.60;;
14516;SDS011;7344;50.864;4.362;2023-06-22T12:16:36;27.30;;;24.45;;
14516;SDS011;7344;50.864;4.362;2023-06-22T12:19:02;28.35;;;25.25;;
14516;SDS011;7344;50.864;4.362;2023-06-22T12:21:28;28.08;;;25.08;;
14516;SDS011;7344;50.864;4.362;2023-06-22T12:23:54;27.27;;;24.55;;
14516;SDS011;7344;50.864;4.362;2023-06-22T12:26:19;27.08;;;24.33;;
14516;SDS011;7344;50.864;4.362;2023-06-22T12:28:45;27.25;;;24.48;;
14516;SDS011;7344;50.864;4.362;2023-06-22T12:31:10;30.70;;;26.27;;
14516;SDS011;7344;50.864;4.362;2023-06-22T12:33:36;29.17;;;25.88;;
14516;SDS011;7344;50.864;4.362;2023-06-22T12:36:02;27.90;;;25.10;;
14516;SDS011;7344;50.864;4.362;2023-06-22T12:38:28;29.55;;;26.48;;
14516;SDS011;7344;50.864;4.362;2023-06-22T12:40:54;31.95;;;28.63;;
14516;SDS011;7344;50.864;4.362;2023-06-22T12:43:19;32.50;;;29.05;;
14516;SDS011;7344;50.864;4.362;2023-06-22T12:45:45;34.03;;;29.20;;
14516;SDS011;7344;50.864;4.362;2023-06-22T12:48:10;33.42;;;29.95;;
14516;SDS011;7344;50.864;4.362;2023-06-22T12:50:37;34.28;;;30.73;;
14516;SDS011;7344;50.864;4.362;2023-06-22T12:53:03;35.33;;;30.73;;
14516;SDS011;7344;50.864;4.362;2023-06-22T12:55:29;35.65;;;31.20;;
14516;SDS011;7344;50.864;4.362;2023-06-22T12:57:55;35.75;;;31.73;;
14516;SDS011;7344;50.864;4.362;2023-06-22T13:00:20;36.70;;;32.75;;
14516;SDS011;7344;50.864;4.362;2023-06-22T13:02:46;36.78;;;32.80;;
14516;SDS011;7344;50.864;4.362;2023-06-22T13:05:12;37.92;;;33.92;;
14516;SDS011;7344;50.864;4.362;2023-06-22T13:07:38;41.78;;;35.17;;
14516;SDS011;7344;50.864;4.362;2023-06-22T13:10:03;38.60;;;34.45;;
14516;SDS011;7344;50.864;4.362;2023-06-22T13:12:29;39.20;;;34.67;;
14516;SDS011;7344;50.864;4.362;2023-06-22T13:14:55;40.17;;;34.80;;
14516;SDS011;7344;50.864;4.362;2023-06-22T13:17:21;39.58;;;35.28;;
14516;SDS011;7344;50.864;4.362;2023-06-22T13:19:46;41.97;;;36.13;;
14516;SDS011;7344;50.864;4.362;2023-06-22T13:22:31;45.35;;;39.00;;
14516;SDS011;7344;50.864;4.362;2023-06-22T13:24:58;41.33;;;35.90;;
14516;SDS011;7344;50.864;4.362;2023-06-22T13:27:24;42.20;;;36.40;;
14516;SDS011;7344;50.864;4.362;2023-06-22T13:29:50;38.25;;;34.10;;
14516;SDS011;7344;50.864;4.362;2023-06-22T13:32:16;46.50;;;37.15;;
14516;SDS011;7344;50.864;4.362;2023-06-22T13:34:42;42.40;;;36.65;;
14516;SDS011;7344;50.864;4.362;2023-06-22T13:37:08;40.22;;;34.95;;
14516;SDS011;7344;50.864;4.362;2023-06-22T13:39:33;38.28;;;33.40;;
14516;SDS011;7344;50.864;4.362;2023-06-22T13:41:59;37.80;;;33.77;;
14516;SDS011;7344;50.864;4.362;2023-06-22T13:44:25;38.60;;;34.63;;
14516;SDS011;7344;50.864;4.362;2023-06-22T13:46:54;37.60;;;33.47;;
14516;SDS011;7344;50.864;4.362;2023-06-22T13:49:19;40.73;;;35.33;;
14516;SDS011;7344;50.864;4.362;2023-06-22T13:51:46;40.83;;;35.00;;
14516;SDS011;7344;50.864;4.362;2023-06-22T13:54:16;37.57;;;32.63;;
14516;SDS011;7344;50.864;4.362;2023-06-22T13:56:41;39.88;;;34.58;;
14516;SDS011;7344;50.864;4.362;2023-06-22T13:59:07;36.85;;;32.88;;
14516;SDS011;7344;50.864;4.362;2023-06-22T14:01:35;37.03;;;32.83;;
14516;SDS011;7344;50.864;4.362;2023-06-22T14:04:01;38.13;;;33.50;;
14516;SDS011;7344;50.864;4.362;2023-06-22T14:06:27;36.97;;;32.72;;
14516;SDS011;7344;50.864;4.362;2023-06-22T14:08:53;36.08;;;32.17;;
14516;SDS011;7344;50.864;4.362;2023-06-22T14:11:18;37.72;;;33.65;;
14516;SDS011;7344;50.864;4.362;2023-06-22T14:13:44;37.47;;;33.28;;
14516;SDS011;7344;50.864;4.362;2023-06-22T14:16:09;35.97;;;32.15;;
14516;SDS011;7344;50.864;4.362;2023-06-22T14:18:35;36.05;;;32.13;;
14516;SDS011;7344;50.864;4.362;2023-06-22T14:21:01;35.95;;;32.08;;
14516;SDS011;7344;50.864;4.362;2023-06-22T14:23:27;35.93;;;32.03;;
14516;SDS011;7344;50.864;4.362;2023-06-22T14:25:52;35.85;;;31.98;;
14516;SDS011;7344;50.864;4.362;2023-06-22T14:28:18;34.67;;;30.95;;
14516;SDS011;7344;50.864;4.362;2023-06-22T14:30:43;35.78;;;32.00;;
14516;SDS011;7344;50.864;4.362;2023-06-22T14:33:09;36.90;;;33.10;;
14516;SDS011;7344;50.864;4.362;2023-06-22T14:35:35;36.22;;;32.38;;
14516;SDS011;7344;50.864;4.362;2023-06-22T14:38:00;38.83;;;34.65;;
14516;SDS011;7344;50.864;4.362;2023-06-22T14:40:26;40.15;;;35.75;;
14516;SDS011;7344;50.864;4.362;2023-06-22T14:42:51;45.43;;;37.90;;
14516;SDS011;7344;50.864;4.362;2023-06-22T14:45:17;44.75;;;39.85;;
14516;SDS011;7344;50.864;4.362;2023-06-22T14:47:43;44.72;;;39.90;;